Time;durP1;ratioP1;P1;durP2;ratioP2;P2;SDS_P1;SDS_P2;PMS_P1;PMS_P2;Temp;Humidity;BMP_temperature;BMP_pressure;BME280_temperature;BME280_humidity;BME280_pressure;Samples;Min_cycle;Max_cycle;Signal;HPM_P1;HPM_P2
2021/12/02 03:45:58;;;;;;;0.45;0.40;;;11.60;77.90;;;;;;5509420;24;20155;-82
2021/12/02 03:48:24;;;;;;;0.60;0.30;;;11.60;78.00;;;;;;4822054;29;20035;-82
2021/12/02 03:50:50;;;;;;;0.38;0.25;;;11.60;77.70;;;;;;4837272;29;20254;-82
2021/12/02 03:53:15;;;;;;;2.72;0.43;;;11.60;77.10;;;;;;4837066;29;20034;-82
2021/12/02 03:55:41;;;;;;;0.95;0.30;;;11.60;77.40;;;;;;4839690;29;20055;-82
2021/12/02 03:58:07;;;;;;;2.55;0.60;;;11.60;77.50;;;;;;4843077;29;20039;-82
2021/12/02 04:00:33;;;;;;;0.30;0.30;;;11.60;76.60;;;;;;4838436;29;20075;-82
2021/12/02 04:02:59;;;;;;;2.80;0.50;;;11.60;76.30;;;;;;4852276;29;20342;-81
2021/12/02 04:05:24;;;;;;;0.40;0.40;;;11.60;76.40;;;;;;4849105;29;20062;-82
2021/12/02 04:07:51;;;;;;;0.40;0.32;;;11.60;76.70;;;;;;4834140;29;20359;-82
2021/12/02 04:10:17;;;;;;;1.23;0.50;;;11.60;75.80;;;;;;4834073;29;20029;-82
2021/12/02 04:15:16;;;;;;;0.57;0.40;;;11.60;75.80;;;;;;4849215;29;20034;-82
2021/12/02 04:17:42;;;;;;;1.30;0.43;;;11.60;75.80;;;;;;4828224;29;20057;-83
2021/12/02 04:20:20;;;;;;;1.27;0.43;;;11.60;75.70;;;;;;4851821;29;20127;-83
2021/12/02 04:22:48;;;;;;;1.30;0.60;;;11.60;75.80;;;;;;4852133;29;20073;-83
2021/12/02 04:25:14;;;;;;;0.82;0.60;;;11.60;75.80;;;;;;4851878;29;20041;-83
2021/12/02 04:27:40;;;;;;;3.10;0.80;;;11.60;75.80;;;;;;4851948;29;20042;-83
2021/12/02 04:30:09;;;;;;;0.50;0.40;;;11.60;75.90;;;;;;4820545;29;20330;-83
2021/12/02 04:32:35;;;;;;;1.27;0.30;;;11.60;75.80;;;;;;4833587;29;20040;-83
2021/12/02 04:35:01;;;;;;;0.63;0.40;;;11.50;75.10;;;;;;4849888;29;20034;-83
2021/12/02 04:37:29;;;;;;;0.17;0.17;;;11.50;75.70;;;;;;4851632;29;20241;-83
2021/12/02 04:39:55;;;;;;;0.95;0.50;;;11.50;75.80;;;;;;4848785;29;20033;-84
2021/12/02 04:42:21;;;;;;;1.53;0.40;;;11.50;75.70;;;;;;4818678;29;20325;-83
2021/12/02 04:44:47;;;;;;;0.38;0.30;;;11.50;75.10;;;;;;4842682;29;20044;-83
2021/12/02 04:47:13;;;;;;;1.38;0.40;;;11.50;75.70;;;;;;4851346;29;20058;-83
2021/12/02 04:49:41;;;;;;;0.22;0.22;;;11.50;74.90;;;;;;4851465;29;20249;-83
2021/12/02 04:52:07;;;;;;;1.95;0.40;;;11.50;74.70;;;;;;4836363;29;20034;-83
2021/12/02 04:54:33;;;;;;;3.15;0.43;;;11.50;75.30;;;;;;4835322;29;20034;-83
2021/12/02 04:56:59;;;;;;;1.63;0.50;;;11.50;75.40;;;;;;4821462;29;20378;-83
2021/12/02 04:59:25;;;;;;;0.45;0.25;;;11.50;74.90;;;;;;4821131;29;20120;-83
2021/12/02 05:01:51;;;;;;;2.13;0.50;;;11.50;74.80;;;;;;4836323;29;20046;-83
2021/12/02 05:04:16;;;;;;;5.40;0.63;;;11.50;74.80;;;;;;4836337;29;20341;-83
2021/12/02 05:06:42;;;;;;;1.05;0.57;;;11.50;74.70;;;;;;4836233;29;20381;-83
2021/12/02 05:09:08;;;;;;;0.30;0.30;;;11.40;74.70;;;;;;4820999;29;20229;-83
2021/12/02 05:11:34;;;;;;;2.15;0.50;;;11.40;74.20;;;;;;4820991;29;20041;-84
2021/12/02 05:14:00;;;;;;;0.75;0.40;;;11.40;74.80;;;;;;4833111;29;20046;-84
2021/12/02 05:16:26;;;;;;;0.50;0.27;;;11.40;74.90;;;;;;4803096;29;20074;-83
2021/12/02 05:18:52;;;;;;;0.45;0.35;;;11.40;74.80;;;;;;4805672;29;20037;-82
2021/12/02 05:21:18;;;;;;;1.83;0.47;;;11.40;74.10;;;;;;4820064;29;20045;-82
2021/12/02 05:23:44;;;;;;;1.67;0.55;;;11.40;73.80;;;;;;4820753;29;20042;-82
2021/12/02 05:26:11;;;;;;;2.05;0.50;;;11.40;74.20;;;;;;4835992;29;20033;-82
2021/12/02 05:28:36;;;;;;;0.60;0.40;;;11.40;74.20;;;;;;4833090;29;20323;-82
2021/12/02 05:31:03;;;;;;;0.75;0.47;;;11.40;74.70;;;;;;4833001;29;20027;-82
2021/12/02 05:33:28;;;;;;;0.75;0.30;;;11.40;73.90;;;;;;4850977;29;20030;-82
2021/12/02 05:35:54;;;;;;;0.55;0.32;;;11.40;74.20;;;;;;4847980;29;20046;-82
2021/12/02 05:38:20;;;;;;;2.97;0.50;;;11.40;73.60;;;;;;4815038;29;20069;-83
2021/12/02 05:40:46;;;;;;;1.45;0.50;;;11.40;74.10;;;;;;4826482;29;20301;-83
2021/12/02 05:43:12;;;;;;;0.40;0.30;;;11.40;73.60;;;;;;4835766;29;20230;-83
2021/12/02 05:45:37;;;;;;;0.63;0.40;;;11.40;73.80;;;;;;4820034;29;20097;-83
2021/12/02 05:48:03;;;;;;;0.50;0.40;;;11.30;73.80;;;;;;4835847;29;20042;-83
2021/12/02 05:50:29;;;;;;;0.85;0.40;;;11.40;74.40;;;;;;4835841;29;20042;-83
2021/12/02 05:52:55;;;;;;;1.25;0.70;;;11.30;74.10;;;;;;4820516;29;20105;-83
2021/12/02 05:55:22;;;;;;;0.90;0.60;;;11.40;74.30;;;;;;4805457;29;20338;-82
2021/12/02 05:57:48;;;;;;;1.73;0.43;;;11.30;74.50;;;;;;4835780;29;20104;-83
2021/12/02 06:00:17;;;;;;;7.22;0.70;;;11.30;74.40;;;;;;4827783;29;20045;-83
2021/12/02 06:02:45;;;;;;;0.82;0.40;;;11.30;74.60;;;;;;4829568;29;20034;-83
2021/12/02 06:05:17;;;;;;;3.97;0.60;;;11.30;74.70;;;;;;4830423;29;20034;-83
2021/12/02 06:07:44;;;;;;;3.75;0.80;;;11.40;75.10;;;;;;4825868;29;20330;-83
2021/12/02 06:10:10;;;;;;;2.70;0.95;;;11.40;75.10;;;;;;4833991;29;20360;-83
2021/12/02 06:12:36;;;;;;;2.22;0.80;;;11.40;75.10;;;;;;4810862;29;20038;-83
2021/12/02 06:15:02;;;;;;;3.35;1.55;;;11.40;75.30;;;;;;4816927;29;20326;-83
2021/12/02 06:17:28;;;;;;;0.98;0.60;;;11.40;75.10;;;;;;4818977;29;20037;-83
2021/12/02 06:19:54;;;;;;;2.72;1.38;;;11.40;75.40;;;;;;4816990;29;20046;-83
2021/12/02 06:22:20;;;;;;;2.25;1.00;;;11.30;75.40;;;;;;4814917;29;20125;-83
2021/12/02 06:24:53;;;;;;;1.02;0.82;;;11.40;75.70;;;;;;4849299;29;20109;-83
2021/12/02 06:27:19;;;;;;;1.42;0.90;;;11.30;75.60;;;;;;4835234;29;20396;-82
2021/12/02 06:29:45;;;;;;;1.75;0.90;;;11.30;75.50;;;;;;4802911;29;20030;-82
2021/12/02 06:32:10;;;;;;;5.75;1.35;;;11.30;75.60;;;;;;4817292;29;20075;-83
2021/12/02 06:34:36;;;;;;;4.22;1.20;;;11.30;75.80;;;;;;4833065;29;20049;-83
2021/12/02 06:37:02;;;;;;;6.03;2.33;;;11.30;76.20;;;;;;4822734;29;20375;-83
2021/12/02 06:39:28;;;;;;;4.10;1.80;;;11.30;76.10;;;;;;4823163;29;20041;-83
2021/12/02 06:41:54;;;;;;;6.90;1.90;;;11.30;76.10;;;;;;4830714;29;20042;-83
2021/12/02 06:44:19;;;;;;;3.42;1.40;;;11.30;76.40;;;;;;4836462;29;20237;-82
2021/12/02 06:46:45;;;;;;;6.15;1.67;;;11.30;76.30;;;;;;4834161;29;20283;-83
2021/12/02 06:49:11;;;;;;;5.55;1.67;;;11.30;76.50;;;;;;4805109;29;20064;-83
2021/12/02 06:51:37;;;;;;;6.70;1.90;;;11.30;76.80;;;;;;4837411;29;20030;-83
2021/12/02 06:54:04;;;;;;;9.82;2.05;;;11.30;76.70;;;;;;4852355;29;20030;-83
2021/12/02 06:56:32;;;;;;;5.18;1.33;;;11.30;76.70;;;;;;4822883;29;20052;-83
2021/12/02 06:58:58;;;;;;;1.95;0.82;;;11.30;76.90;;;;;;4824722;29;20322;-82
2021/12/02 07:01:24;;;;;;;1.92;0.70;;;11.10;77.00;;;;;;4822185;29;20026;-82
2021/12/02 07:03:50;;;;;;;3.25;0.63;;;11.20;77.20;;;;;;4862635;29;20029;-83
2021/12/02 07:06:16;;;;;;;4.25;0.85;;;11.20;77.30;;;;;;4829992;29;20154;-83
2021/12/02 07:08:42;;;;;;;1.15;0.70;;;11.20;77.40;;;;;;4833198;29;20180;-83
2021/12/02 07:11:09;;;;;;;2.30;0.82;;;11.20;77.70;;;;;;4851345;29;20218;-82
2021/12/02 07:13:37;;;;;;;11.48;2.10;;;11.20;77.50;;;;;;4827338;29;20034;-82
2021/12/02 07:16:03;;;;;;;5.95;1.00;;;11.20;77.50;;;;;;4840171;29;20022;-82
2021/12/02 07:18:35;;;;;;;4.47;1.08;;;11.30;77.50;;;;;;4844267;29;20064;-82
2021/12/02 07:21:01;;;;;;;0.93;0.70;;;11.40;77.50;;;;;;4837884;29;20045;-82
2021/12/02 07:23:26;;;;;;;6.28;0.70;;;11.40;77.90;;;;;;4852000;29;20030;-82
2021/12/02 07:25:52;;;;;;;1.67;1.00;;;11.30;77.50;;;;;;4828162;29;20033;-82
2021/12/02 07:28:19;;;;;;;4.30;0.80;;;11.20;78.10;;;;;;4836916;29;20045;-82
2021/12/02 07:30:52;;;;;;;1.52;0.60;;;11.20;77.60;;;;;;4831235;29;20045;-82
2021/12/02 07:33:19;;;;;;;2.38;0.98;;;11.30;77.90;;;;;;4842257;29;20033;-82
2021/12/02 07:35:45;;;;;;;1.95;0.88;;;11.30;78.00;;;;;;4844225;29;20038;-82
2021/12/02 07:38:11;;;;;;;4.20;1.15;;;11.40;77.70;;;;;;4846076;29;20070;-82
2021/12/02 07:40:40;;;;;;;3.58;0.70;;;11.30;77.80;;;;;;4844950;29;20042;-82
2021/12/02 07:43:06;;;;;;;5.85;0.80;;;11.40;78.50;;;;;;4849920;29;20078;-82
2021/12/02 07:45:35;;;;;;;6.05;1.30;;;11.40;77.80;;;;;;4819614;29;20034;-82
2021/12/02 07:48:04;;;;;;;3.13;1.05;;;11.40;78.10;;;;;;4846346;29;20046;-82
2021/12/02 07:50:30;;;;;;;2.45;1.05;;;11.40;77.90;;;;;;4835236;29;20124;-82
2021/12/02 07:53:00;;;;;;;7.38;1.38;;;11.50;77.90;;;;;;4821706;29;20389;-82
2021/12/02 07:55:26;;;;;;;4.47;1.10;;;11.50;77.60;;;;;;4856430;29;20048;-82
2021/12/02 07:57:53;;;;;;;4.85;2.25;;;11.60;78.00;;;;;;4851358;29;20101;-82
2021/12/02 08:00:23;;;;;;;1.33;0.95;;;11.60;77.90;;;;;;4821365;29;20117;-82
2021/12/02 08:02:51;;;;;;;2.80;1.23;;;11.60;77.90;;;;;;4836007;29;20037;-83
2021/12/02 08:05:18;;;;;;;2.28;0.90;;;11.50;76.90;;;;;;4836540;29;20045;-82
2021/12/02 08:07:44;;;;;;;6.53;1.30;;;11.50;77.30;;;;;;4836724;29;20063;-82
2021/12/02 08:10:12;;;;;;;5.68;1.08;;;11.50;77.40;;;;;;4833522;29;20034;-82
2021/12/02 08:12:40;;;;;;;4.47;1.45;;;11.60;77.20;;;;;;4824535;29;20030;-82
2021/12/02 08:15:08;;;;;;;4.47;1.15;;;11.60;77.30;;;;;;4826434;29;20254;-82
2021/12/02 08:17:34;;;;;;;2.90;0.85;;;11.60;77.20;;;;;;4866224;29;20334;-81
2021/12/02 08:20:00;;;;;;;2.72;1.10;;;11.60;77.00;;;;;;4833277;29;20099;-83
2021/12/02 08:22:27;;;;;;;2.40;1.00;;;11.60;76.80;;;;;;4847150;29;20322;-81
2021/12/02 08:24:52;;;;;;;4.85;0.80;;;11.50;76.40;;;;;;4843941;29;20040;-81
2021/12/02 08:27:19;;;;;;;4.70;0.95;;;11.50;76.20;;;;;;4833433;29;20290;-82
2021/12/02 08:29:45;;;;;;;2.55;0.93;;;11.50;76.30;;;;;;4846692;29;20056;-82
2021/12/02 08:32:11;;;;;;;2.40;0.93;;;11.50;76.10;;;;;;4820295;29;20038;-82
2021/12/02 08:34:37;;;;;;;3.38;0.88;;;11.60;75.70;;;;;;4803450;29;20258;-82
2021/12/02 08:37:04;;;;;;;3.38;1.25;;;11.60;76.10;;;;;;4833285;29;20062;-82
2021/12/02 08:39:31;;;;;;;3.58;1.40;;;11.70;75.90;;;;;;4803364;29;20046;-82
2021/12/02 08:41:57;;;;;;;2.70;1.25;;;11.70;75.70;;;;;;4836147;29;20081;-82
2021/12/02 08:44:25;;;;;;;3.47;0.90;;;11.80;75.30;;;;;;4820910;29;20046;-82
2021/12/02 08:46:53;;;;;;;8.57;1.52;;;11.80;75.50;;;;;;4850708;29;20230;-81
2021/12/02 08:49:23;;;;;;;3.45;0.95;;;11.90;75.30;;;;;;4820482;29;20041;-81
2021/12/02 08:51:49;;;;;;;6.47;1.30;;;11.90;75.60;;;;;;4833303;29;20045;-82
2021/12/02 08:54:15;;;;;;;6.07;1.30;;;11.90;74.20;;;;;;4832202;29;20065;-81
2021/12/02 08:56:41;;;;;;;5.90;1.57;;;11.90;74.60;;;;;;4820630;29;20038;-81
2021/12/02 08:59:08;;;;;;;3.58;1.10;;;11.90;74.50;;;;;;4835919;29;20284;-82
2021/12/02 09:01:34;;;;;;;2.13;1.10;;;11.90;74.30;;;;;;4834174;29;20046;-82
2021/12/02 09:04:02;;;;;;;8.13;1.20;;;11.80;73.80;;;;;;4833936;29;20031;-82
2021/12/02 09:06:28;;;;;;;1.10;1.00;;;11.70;74.20;;;;;;4835592;29;20318;-81
2021/12/02 09:08:56;;;;;;;4.05;1.23;;;11.80;74.10;;;;;;4835424;29;20033;-82
2021/12/02 09:11:22;;;;;;;1.40;0.77;;;11.80;74.40;;;;;;4820165;29;20041;-82
2021/12/02 09:13:48;;;;;;;1.75;1.08;;;11.90;74.40;;;;;;4850564;29;20234;-82
2021/12/02 09:16:14;;;;;;;1.52;0.77;;;11.70;73.80;;;;;;4819954;29;20342;-81
2021/12/02 09:18:40;;;;;;;1.35;0.77;;;11.70;73.70;;;;;;4835232;29;20057;-81
2021/12/02 09:21:06;;;;;;;4.45;1.35;;;11.70;74.30;;;;;;4845784;29;20053;-82
2021/12/02 09:23:32;;;;;;;3.08;0.88;;;11.60;74.40;;;;;;4829209;29;20068;-82
2021/12/02 09:25:58;;;;;;;3.33;0.80;;;11.80;74.40;;;;;;4850598;29;20037;-81
2021/12/02 09:28:25;;;;;;;5.32;1.05;;;11.70;74.10;;;;;;4850429;29;20480;-81
2021/12/02 09:30:51;;;;;;;3.42;0.90;;;11.70;73.60;;;;;;4820341;29;20266;-81
2021/12/02 09:33:17;;;;;;;0.75;0.50;;;11.70;74.20;;;;;;4834083;29;20045;-81
2021/12/02 09:35:43;;;;;;;1.70;0.68;;;11.60;73.90;;;;;;4832103;29;20338;-81
2021/12/02 09:38:10;;;;;;;1.48;0.65;;;11.70;74.20;;;;;;4846293;29;20026;-82
2021/12/02 09:40:36;;;;;;;2.47;0.57;;;11.60;74.10;;;;;;4833974;29;20050;-82
2021/12/02 09:43:03;;;;;;;1.50;0.60;;;11.60;74.50;;;;;;4834898;29;20071;-81
2021/12/02 09:45:29;;;;;;;2.95;0.52;;;11.60;74.80;;;;;;4831772;29;20135;-82
2021/12/02 09:47:55;;;;;;;2.70;0.70;;;11.50;74.50;;;;;;4817262;29;20049;-82
2021/12/02 09:53:20;;;;;;;1.63;0.80;;;11.40;74.90;;;;;;4816006;29;20338;-82
2021/12/02 09:58:27;;;;;;;5.13;0.90;;;11.30;75.20;;;;;;4816035;29;20042;-82
2021/12/02 10:01:04;;;;;;;1.90;0.63;;;11.40;75.20;;;;;;4816225;29;20080;-82
2021/12/02 10:03:32;;;;;;;;;;;11.40;75.00;;;;;;4816302;29;20258;-82
2021/12/02 10:06:09;;;;;;;3.03;1.42;;;11.40;75.10;;;;;;4815638;29;19959;-81
2021/12/02 10:08:45;;;;;;;1.98;0.77;;;11.40;75.70;;;;;;4819136;29;20171;-81
2021/12/02 10:11:15;;;;;;;1.90;0.70;;;11.40;76.70;;;;;;4819652;29;20034;-81
2021/12/02 10:13:56;;;;;;;1.30;0.90;;;11.30;77.20;;;;;;4820335;29;20204;-82
2021/12/02 10:18:56;;;;;;;1.02;0.80;;;11.10;76.50;;;;;;4804035;29;20150;-83
2021/12/02 10:21:38;;;;;;;1.98;0.80;;;11.20;77.10;;;;;;4818218;29;20101;-81
2021/12/02 10:24:13;;;;;;;2.58;0.63;;;11.10;76.80;;;;;;4819002;29;20316;-82
2021/12/02 10:26:44;;;;;;;2.13;0.73;;;11.10;76.80;;;;;;4834013;29;20233;-82
2021/12/02 10:29:25;;;;;;;1.17;0.60;;;11.20;76.80;;;;;;4820154;29;20115;-82
2021/12/02 10:32:28;;;;;;;1.88;0.68;;;11.10;75.50;;;;;;4852246;29;20053;-82
2021/12/02 10:35:03;;;;;;;3.97;1.50;;;11.10;75.90;;;;;;4821127;29;20307;-82
2021/12/02 10:37:35;;;;;;;4.93;2.22;;;11.00;76.90;;;;;;4821889;29;20049;-82
2021/12/02 10:40:14;;;;;;;4.00;1.20;;;11.10;77.40;;;;;;4851661;29;20034;-81
2021/12/02 10:42:42;;;;;;;4.85;1.45;;;11.00;78.00;;;;;;4819777;29;20042;-82
2021/12/02 10:45:30;;;;;;;5.00;1.83;;;11.00;78.40;;;;;;4838135;29;20065;-82
2021/12/02 10:47:57;;;;;;;2.45;1.30;;;11.10;78.80;;;;;;4821811;29;20088;-81
2021/12/02 10:50:24;;;;;;;1.63;0.90;;;11.20;78.60;;;;;;4836447;29;20034;-82
2021/12/02 10:52:53;;;;;;;3.67;1.27;;;11.10;78.00;;;;;;4808684;29;20109;-81
2021/12/02 10:55:23;;;;;;;5.63;1.20;;;11.00;78.70;;;;;;4836935;29;20386;-82
2021/12/02 10:57:58;;;;;;;5.65;1.10;;;11.00;79.40;;;;;;4836650;29;20276;-82
2021/12/02 11:00:26;;;;;;;2.90;1.50;;;11.00;79.30;;;;;;4819868;29;20125;-82
2021/12/02 11:02:54;;;;;;;2.58;1.30;;;11.10;78.80;;;;;;4836707;29;20037;-83
2021/12/02 11:05:28;;;;;;;6.00;1.30;;;11.10;79.20;;;;;;4821593;29;20237;-82
2021/12/02 11:07:56;;;;;;;7.78;1.00;;;11.00;79.70;;;;;;4851992;29;20087;-82
2021/12/02 11:10:24;;;;;;;11.35;1.30;;;11.10;79.70;;;;;;4843216;29;20381;-82
2021/12/02 11:12:55;;;;;;;4.03;1.00;;;11.10;79.90;;;;;;4836247;29;20245;-82
2021/12/02 11:15:23;;;;;;;13.70;1.30;;;11.00;79.40;;;;;;4849023;29;20037;-82
2021/12/02 11:17:57;;;;;;;3.22;1.48;;;11.00;78.50;;;;;;4837283;29;20069;-83
2021/12/02 11:20:33;;;;;;;2.25;1.13;;;11.10;78.50;;;;;;4837255;29;20040;-82
2021/12/02 11:23:03;;;;;;;5.68;2.83;;;11.20;78.70;;;;;;4852358;29;20109;-82
2021/12/02 11:25:31;;;;;;;2.53;2.33;;;11.20;77.70;;;;;;4849897;29;20352;-82
2021/12/02 11:28:02;;;;;;;4.95;1.48;;;11.10;77.70;;;;;;4834542;29;20265;-81
2021/12/02 11:30:29;;;;;;;2.83;1.10;;;11.10;78.00;;;;;;4852288;29;20074;-82
2021/12/02 11:32:57;;;;;;;;;;;11.00;78.40;;;;;;4837290;29;20390;-82
2021/12/02 11:35:33;;;;;;;3.67;1.60;;;11.00;78.50;;;;;;4848152;29;19915;-82
2021/12/02 11:38:18;;;;;;;2.28;1.50;;;11.00;78.40;;;;;;4837091;29;20060;-81
2021/12/02 11:40:49;;;;;;;4.07;1.42;;;11.00;78.90;;;;;;4851199;29;20216;-82
2021/12/02 11:43:18;;;;;;;9.13;1.80;;;11.00;78.80;;;;;;4837543;29;20309;-82
2021/12/02 11:45:47;;;;;;;2.28;1.30;;;11.10;79.00;;;;;;4852734;29;20030;-80
2021/12/02 11:48:18;;;;;;;5.45;1.13;;;11.00;78.90;;;;;;4838563;29;20356;-82
2021/12/02 11:50:47;;;;;;;3.65;1.25;;;11.00;79.00;;;;;;4837195;29;20029;-82
2021/12/02 11:53:14;;;;;;;1.33;1.15;;;10.90;79.60;;;;;;4821585;29;20044;-82
2021/12/02 11:55:42;;;;;;;6.53;1.70;;;10.90;79.80;;;;;;4822021;29;20330;-82
2021/12/02 11:58:09;;;;;;;6.85;1.95;;;10.90;80.10;;;;;;4851908;29;20046;-82
2021/12/02 12:00:36;;;;;;;4.13;2.20;;;10.90;80.60;;;;;;4848090;29;20390;-81
2021/12/02 12:03:20;;;;;;;6.15;1.30;;;10.90;81.00;;;;;;4847457;29;20256;-82
2021/12/02 12:05:58;;;;;;;3.88;1.50;;;10.90;81.10;;;;;;4855300;29;20344;-82
2021/12/02 12:08:33;;;;;;;4.55;1.50;;;10.90;81.00;;;;;;4838948;29;20058;-82
2021/12/02 12:11:23;;;;;;;3.05;1.73;;;10.90;81.00;;;;;;4850709;29;20029;-82
2021/12/02 12:13:53;;;;;;;4.63;2.38;;;10.90;81.10;;;;;;4849958;29;20460;-82
2021/12/02 12:16:33;;;;;;;4.72;1.83;;;10.80;81.10;;;;;;4850983;29;20423;-82
2021/12/02 12:19:16;;;;;;;4.18;1.30;;;10.90;81.90;;;;;;4830710;29;20033;-82
2021/12/02 12:21:49;;;;;;;2.50;1.02;;;10.80;81.00;;;;;;4853066;29;20104;-82
2021/12/02 12:24:15;;;;;;;2.17;1.20;;;10.80;81.20;;;;;;4847534;29;20329;-83
2021/12/02 12:26:47;;;;;;;3.70;1.02;;;10.80;81.30;;;;;;4838323;29;20037;-83
2021/12/02 12:29:16;;;;;;;2.80;1.15;;;10.90;81.30;;;;;;4834399;29;20105;-82
2021/12/02 12:31:53;;;;;;;2.63;1.25;;;11.00;81.70;;;;;;4852192;29;20253;-82
2021/12/02 12:34:31;;;;;;;5.80;1.75;;;11.00;80.20;;;;;;4849270;29;20048;-83
2021/12/02 12:36:59;;;;;;;7.75;2.00;;;10.90;80.40;;;;;;4851795;29;20257;-83
2021/12/02 12:39:30;;;;;;;4.20;1.23;;;10.90;80.30;;;;;;4853114;29;20326;-83
2021/12/02 12:42:16;;;;;;;6.60;1.38;;;10.80;80.40;;;;;;4848387;29;20030;-82
2021/12/02 12:44:54;;;;;;;2.40;1.17;;;10.90;80.70;;;;;;4837404;29;20045;-83
2021/12/02 12:47:41;;;;;;;2.65;1.33;;;10.80;80.90;;;;;;4853009;29;20065;-83
2021/12/02 12:50:27;;;;;;;2.33;1.20;;;10.80;81.20;;;;;;4829790;29;20200;-82
2021/12/02 12:53:07;;;;;;;4.47;1.40;;;10.70;80.60;;;;;;4844395;29;20328;-83
2021/12/02 12:55:38;;;;;;;4.07;1.85;;;10.80;81.10;;;;;;4845526;29;20037;-83
2021/12/02 12:58:17;;;;;;;6.22;1.60;;;10.90;81.20;;;;;;4839687;29;20105;-83
2021/12/02 13:00:46;;;;;;;2.80;1.65;;;10.90;81.00;;;;;;4849377;29;20394;-83
2021/12/02 13:03:22;;;;;;;4.65;1.58;;;11.00;80.60;;;;;;4835925;29;20033;-81
2021/12/02 13:05:55;;;;;;;6.60;1.38;;;10.90;80.00;;;;;;4831436;29;20046;-82
2021/12/02 13:08:25;;;;;;;2.83;1.50;;;10.90;80.30;;;;;;4833104;29;20057;-81
2021/12/02 13:11:00;;;;;;;2.88;1.20;;;10.80;80.10;;;;;;4834393;29;20033;-81
2021/12/02 13:13:29;;;;;;;3.35;1.73;;;10.80;80.50;;;;;;4833611;29;20366;-82
2021/12/02 13:16:18;;;;;;;3.95;1.02;;;10.80;80.20;;;;;;4835344;29;20132;-82
2021/12/02 13:18:48;;;;;;;2.25;1.30;;;10.80;78.90;;;;;;4847715;29;20034;-82
2021/12/02 13:21:30;;;;;;;3.38;1.15;;;10.60;79.00;;;;;;4849206;29;20086;-82
2021/12/02 13:24:00;;;;;;;6.10;1.20;;;10.70;79.20;;;;;;4847984;29;20034;-82
2021/12/02 13:26:35;;;;;;;5.60;1.77;;;10.70;78.70;;;;;;4826745;29;20034;-83
2021/12/02 13:29:09;;;;;;;5.68;1.60;;;10.70;78.80;;;;;;4835324;29;20053;-82
2021/12/02 13:31:37;;;;;;;3.47;1.52;;;10.60;78.20;;;;;;4835552;29;20058;-82
2021/12/02 13:34:08;;;;;;;6.95;1.20;;;10.60;78.40;;;;;;4835461;29;20033;-82
2021/12/02 13:36:36;;;;;;;5.97;1.42;;;10.50;78.20;;;;;;4832766;29;20026;-82
2021/12/02 13:39:18;;;;;;;4.53;1.15;;;10.50;78.30;;;;;;4850396;29;20057;-82
2021/12/02 13:42:15;;;;;;;5.47;1.92;;;10.40;78.00;;;;;;4829176;29;20053;-82
2021/12/02 13:44:53;;;;;;;2.92;1.20;;;10.40;78.10;;;;;;4852714;29;20046;-82
2021/12/02 13:47:35;;;;;;;3.63;1.25;;;10.40;78.50;;;;;;4852249;29;20285;-83
2021/12/02 13:50:06;;;;;;;2.50;1.00;;;10.40;78.10;;;;;;4834163;29;20044;-82
2021/12/02 13:52:40;;;;;;;3.95;0.95;;;10.30;78.40;;;;;;4832508;29;20034;-82
2021/12/02 13:55:23;;;;;;;3.08;1.45;;;10.40;78.40;;;;;;4850013;29;20047;-82
2021/12/02 13:57:52;;;;;;;3.80;1.25;;;10.40;78.50;;;;;;4837217;29;20066;-83
2021/12/02 14:00:29;;;;;;;3.50;1.25;;;10.30;78.20;;;;;;4837632;29;20033;-82
2021/12/02 14:02:55;;;;;;;6.78;1.63;;;10.40;78.30;;;;;;4836672;29;20044;-82
2021/12/02 14:05:25;;;;;;;4.75;1.33;;;10.40;78.00;;;;;;4837010;29;20037;-83
2021/12/02 14:07:53;;;;;;;1.40;0.80;;;10.20;77.30;;;;;;4837300;29;20069;-82
2021/12/02 14:10:22;;;;;;;6.90;1.23;;;10.20;77.70;;;;;;4837499;29;20022;-82
2021/12/02 14:12:51;;;;;;;6.80;1.25;;;10.20;77.80;;;;;;4852327;29;20109;-82
2021/12/02 14:15:24;;;;;;;6.10;2.22;;;10.20;78.40;;;;;;4852390;29;20042;-83
2021/12/02 14:18:07;;;;;;;14.13;4.47;;;10.30;78.50;;;;;;4852559;29;20222;-82
2021/12/02 14:20:40;;;;;;;7.47;3.58;;;10.30;78.30;;;;;;4834497;29;20046;-82
2021/12/02 14:23:13;;;;;;;6.78;2.10;;;10.20;77.80;;;;;;4831664;29;20076;-83
2021/12/02 14:25:41;;;;;;;7.28;1.70;;;10.10;77.90;;;;;;4842596;29;20266;-82
2021/12/02 14:28:15;;;;;;;5.15;1.70;;;10.10;78.30;;;;;;4849210;29;20046;-82
2021/12/02 14:30:52;;;;;;;8.98;2.90;;;10.00;78.70;;;;;;4848702;29;20037;-82
2021/12/02 14:33:24;;;;;;;13.27;2.50;;;10.00;78.90;;;;;;4834640;29;20369;-83
2021/12/02 14:35:53;;;;;;;9.80;1.83;;;9.90;79.30;;;;;;4849965;29;20119;-83
2021/12/02 14:38:32;;;;;;;7.57;2.00;;;9.90;79.40;;;;;;4847615;29;20035;-82
2021/12/02 14:41:10;;;;;;;5.55;1.42;;;9.90;79.50;;;;;;4824545;29;20195;-82
2021/12/02 14:43:35;;;;;;;7.40;1.40;;;9.80;79.50;;;;;;4832857;29;20041;-82
2021/12/02 14:46:28;;;;;;;2.80;1.13;;;9.80;79.60;;;;;;4817550;29;20344;-83
2021/12/02 14:49:19;;;;;;;4.72;1.50;;;9.80;79.60;;;;;;4845048;29;20077;-82
2021/12/02 14:51:54;;;;;;;7.15;1.40;;;9.80;79.80;;;;;;4860260;29;20037;-82
2021/12/02 14:54:37;;;;;;;5.18;1.45;;;9.80;80.20;;;;;;4848678;29;20074;-82
2021/12/02 14:57:25;;;;;;;3.15;1.38;;;9.80;80.30;;;;;;4835003;29;20056;-82
2021/12/02 15:00:05;;;;;;;9.10;1.40;;;9.80;80.70;;;;;;4846577;29;20243;-82
2021/12/02 15:02:39;;;;;;;4.63;1.80;;;9.70;81.10;;;;;;4855449;29;20154;-83
2021/12/02 15:05:24;;;;;;;6.25;1.33;;;9.70;81.50;;;;;;4855494;29;20037;-83
2021/12/02 15:08:03;;;;;;;3.38;1.20;;;9.70;81.90;;;;;;4855438;29;20844;-82
2021/12/02 15:10:35;;;;;;;6.63;1.45;;;9.70;81.80;;;;;;4853398;29;20078;-82
2021/12/02 15:13:15;;;;;;;3.80;1.50;;;9.60;82.00;;;;;;4855069;29;20045;-81
2021/12/02 15:15:54;;;;;;;3.97;1.55;;;9.60;82.20;;;;;;4854910;29;20037;-82
2021/12/02 15:18:23;;;;;;;2.63;1.35;;;9.60;82.60;;;;;;4839438;29;20045;-82
2021/12/02 15:20:51;;;;;;;5.88;1.63;;;9.70;82.60;;;;;;4854840;29;20214;-82
2021/12/02 15:23:24;;;;;;;5.80;1.80;;;9.60;82.60;;;;;;4824785;29;20053;-81
2021/12/02 15:26:04;;;;;;;2.63;1.38;;;9.60;82.50;;;;;;4852708;29;20219;-81
2021/12/02 15:28:31;;;;;;;6.78;1.70;;;9.60;82.90;;;;;;4848321;29;20066;-81
2021/12/02 15:31:07;;;;;;;7.20;2.53;;;9.60;83.00;;;;;;4824748;29;20389;-81
2021/12/02 15:33:41;;;;;;;4.55;1.40;;;9.60;83.00;;;;;;4851544;29;20041;-81
2021/12/02 15:36:10;;;;;;;5.88;1.48;;;9.60;83.20;;;;;;4849316;29;20520;-81
2021/12/02 15:38:38;;;;;;;4.15;1.95;;;9.50;83.30;;;;;;4846806;29;20099;-81
2021/12/02 15:41:07;;;;;;;10.10;2.20;;;9.50;83.30;;;;;;4843397;29;20042;-81
2021/12/02 15:43:45;;;;;;;3.65;1.50;;;9.40;83.30;;;;;;4836902;29;20341;-81
2021/12/02 15:46:12;;;;;;;8.00;2.13;;;9.40;83.50;;;;;;4852330;29;20106;-81
2021/12/02 15:48:40;;;;;;;5.60;1.67;;;9.40;83.40;;;;;;4822312;29;20040;-82
2021/12/02 15:51:06;;;;;;;8.63;1.75;;;9.40;83.50;;;;;;4833804;29;20419;-82
2021/12/02 15:53:32;;;;;;;7.97;2.00;;;9.40;83.50;;;;;;4849996;29;20123;-82
2021/12/02 15:55:57;;;;;;;6.22;2.38;;;9.40;83.60;;;;;;4821444;29;20261;-82
2021/12/02 15:58:23;;;;;;;8.15;2.38;;;9.30;83.60;;;;;;4821367;29;20038;-82
2021/12/02 16:00:56;;;;;;;7.88;1.90;;;9.30;83.40;;;;;;4836745;29;20333;-82
2021/12/02 16:03:27;;;;;;;4.05;2.38;;;9.30;83.50;;;;;;4836541;29;20034;-82
2021/12/02 16:08:35;;;;;;;5.55;2.65;;;9.30;83.50;;;;;;4853817;29;20555;-82
2021/12/02 16:13:42;;;;;;;5.15;2.00;;;9.20;83.70;;;;;;4836381;29;20109;-82
2021/12/02 16:16:08;;;;;;;5.18;2.38;;;9.10;83.40;;;;;;4821169;29;20034;-83
2021/12/02 16:18:34;;;;;;;8.03;3.77;;;9.10;83.70;;;;;;4833862;29;20061;-82
2021/12/02 16:21:03;;;;;;;8.95;3.70;;;9.10;83.60;;;;;;4834138;29;20314;-82
2021/12/02 16:23:33;;;;;;;6.05;2.75;;;9.10;83.70;;;;;;4836302;29;20038;-82
2021/12/02 16:25:59;;;;;;;6.97;2.45;;;9.10;84.10;;;;;;4850024;29;20263;-82
2021/12/02 16:28:25;;;;;;;9.88;2.85;;;9.10;83.40;;;;;;4835709;29;20030;-83
2021/12/02 16:30:54;;;;;;;6.75;2.40;;;9.10;83.20;;;;;;4836346;29;20321;-82
2021/12/02 16:33:22;;;;;;;8.02;1.95;;;9.10;82.90;;;;;;4817015;29;20034;-82
2021/12/02 16:35:48;;;;;;;5.45;2.00;;;9.10;83.00;;;;;;4831284;29;20034;-82
2021/12/02 16:38:14;;;;;;;6.53;2.85;;;9.10;83.00;;;;;;4835437;29;20100;-82
2021/12/02 16:40:40;;;;;;;6.10;2.20;;;9.20;83.20;;;;;;4834466;29;20034;-82
2021/12/02 16:43:08;;;;;;;8.75;2.45;;;9.10;82.80;;;;;;4836006;29;20034;-82
2021/12/02 16:45:56;;;;;;;7.32;2.10;;;9.10;82.90;;;;;;4833651;29;20029;-82
2021/12/02 16:48:22;;;;;;;10.77;2.55;;;9.10;82.70;;;;;;4847974;29;20052;-82
2021/12/02 16:50:50;;;;;;;8.68;1.95;;;9.20;82.90;;;;;;4849952;29;20369;-82
2021/12/02 16:53:20;;;;;;;7.78;1.85;;;9.20;83.10;;;;;;4835663;29;20056;-82
2021/12/02 16:55:47;;;;;;;10.48;2.20;;;9.20;82.90;;;;;;4835577;29;20029;-82
2021/12/02 16:58:12;;;;;;;4.43;1.73;;;9.20;82.80;;;;;;4849058;29;20034;-82
2021/12/02 17:00:41;;;;;;;4.40;1.92;;;9.20;82.80;;;;;;4820009;29;20348;-82
2021/12/02 17:03:08;;;;;;;5.72;1.60;;;9.20;82.80;;;;;;4850513;29;20421;-83